createdAt,value
2019-03-31T00:01:39.561Z,56.80
2019-03-31T00:04:11.825Z,49.13
2019-03-31T00:06:44.123Z,50.77
2019-03-31T00:09:16.478Z,52.67
2019-03-31T00:11:48.826Z,53.17
2019-03-31T00:14:21.187Z,52.77
2019-03-31T00:16:53.704Z,57.37
2019-03-31T00:19:25.980Z,52.33
2019-03-31T00:21:58.234Z,59.03
2019-03-31T00:24:30.512Z,51.33
2019-03-31T00:27:03.040Z,51.73
2019-03-31T00:29:35.409Z,51.47
2019-03-31T00:32:07.892Z,55.53
2019-03-31T00:34:40.220Z,52.17
2019-03-31T00:37:12.591Z,48.20
2019-03-31T00:39:44.945Z,57.30
2019-03-31T00:42:17.193Z,56.97
2019-03-31T00:44:49.456Z,57.70
2019-03-31T00:47:21.821Z,55.07
2019-03-31T00:49:54.196Z,52.60
2019-03-31T00:52:26.469Z,52.80
2019-03-31T00:54:58.733Z,48.23
2019-03-31T00:57:30.977Z,51.53
2019-03-31T01:00:05.728Z,49.30
2019-03-31T01:02:37.989Z,59.10
2019-03-31T01:05:10.444Z,54.00
2019-03-31T01:07:42.800Z,59.30
2019-03-31T01:10:15.158Z,54.97
2019-03-31T01:12:47.563Z,60.83
2019-03-31T01:15:22.648Z,55.07
2019-03-31T01:17:55.428Z,56.77
2019-03-31T01:20:27.776Z,53.87
2019-03-31T01:23:00.233Z,53.50
2019-03-31T01:25:32.499Z,58.47
2019-03-31T01:28:04.756Z,49.77
2019-03-31T01:30:37.129Z,57.20
2019-03-31T01:33:09.596Z,53.70
2019-03-31T01:35:41.980Z,50.37
2019-03-31T01:38:14.248Z,53.43
2019-03-31T01:40:46.793Z,52.73
2019-03-31T01:43:19.031Z,51.27
2019-03-31T01:45:51.379Z,53.33
2019-03-31T01:48:23.645Z,53.37
2019-03-31T01:50:56.017Z,50.33
2019-03-31T01:53:28.257Z,62.67
2019-03-31T01:56:00.529Z,53.67
2019-03-31T01:58:33.270Z,56.77
2019-03-31T02:01:06.983Z,61.60
2019-03-31T02:03:39.256Z,63.30
2019-03-31T02:06:11.627Z,57.90
2019-03-31T02:08:43.961Z,59.97
2019-03-31T02:11:16.239Z,67.30
2019-03-31T02:13:48.515Z,61.67
2019-03-31T02:16:20.792Z,64.07
2019-03-31T02:18:53.065Z,71.10
2019-03-31T02:21:25.325Z,74.77
2019-03-31T02:23:57.597Z,70.13
2019-03-31T02:26:29.877Z,67.67
2019-03-31T02:29:02.343Z,71.00
2019-03-31T02:31:34.624Z,77.67
2019-03-31T02:34:06.878Z,81.63
2019-03-31T02:36:39.268Z,74.70
2019-03-31T02:39:11.517Z,91.47
2019-03-31T02:41:43.965Z,73.70
2019-03-31T02:44:16.213Z,82.27
2019-03-31T02:46:48.513Z,76.97
2019-03-31T02:49:20.850Z,81.17
2019-03-31T02:51:53.318Z,90.20
2019-03-31T02:54:25.961Z,85.17
2019-03-31T02:56:58.350Z,79.30
2019-03-31T02:59:31.847Z,83.83
2019-03-31T03:02:04.204Z,90.27
2019-03-31T03:04:37.644Z,76.07
2019-03-31T03:07:12.597Z,85.97
2019-03-31T03:09:46.744Z,84.70
2019-03-31T03:12:21.327Z,87.57
2019-03-31T03:14:55.577Z,81.57
2019-03-31T03:17:28.231Z,84.00
2019-03-31T03:20:00.479Z,86.00
2019-03-31T03:22:32.833Z,104.17
2019-03-31T03:25:05.177Z,103.20
2019-03-31T03:27:37.426Z,103.10
2019-03-31T03:30:09.789Z,108.10
2019-03-31T03:33:10.817Z,107.43
2019-03-31T03:35:16.353Z,111.43
2019-03-31T03:37:48.664Z,102.17
2019-03-31T03:40:20.937Z,123.13
2019-03-31T03:42:53.212Z,107.80
2019-03-31T03:45:25.441Z,99.73
2019-03-31T03:47:57.704Z,106.67
2019-03-31T03:50:29.957Z,110.53
2019-03-31T03:53:02.377Z,106.60
2019-03-31T03:55:34.634Z,112.13
2019-03-31T03:58:06.902Z,144.97
2019-03-31T04:00:39.149Z,147.40
2019-03-31T04:03:28.562Z,156.87
2019-03-31T04:05:45.715Z,149.80
2019-03-31T04:08:17.981Z,153.00
2019-03-31T04:11:21.548Z,162.80
2019-03-31T04:13:54.010Z,158.90
2019-03-31T04:16:26.607Z,164.70
2019-03-31T04:18:58.971Z,165.50
2019-03-31T04:21:31.310Z,160.60
2019-03-31T04:24:03.780Z,173.30
2019-03-31T04:26:36.000Z,160.23
2019-03-31T04:29:08.261Z,169.07
2019-03-31T04:31:40.509Z,177.13
2019-03-31T04:34:12.781Z,194.70
2019-03-31T04:36:45.056Z,196.53
2019-03-31T04:39:17.321Z,158.50
2019-03-31T04:41:49.667Z,187.93
2019-03-31T04:44:21.933Z,195.53
2019-03-31T04:46:54.314Z,179.47
2019-03-31T04:49:26.562Z,202.37
2019-03-31T04:51:58.803Z,211.90
2019-03-31T04:54:31.077Z,201.50
2019-03-31T04:57:04.662Z,172.63
2019-03-31T04:59:37.085Z,216.83
2019-03-31T05:02:09.320Z,197.97
2019-03-31T05:04:41.588Z,191.20
2019-03-31T05:07:13.989Z,176.40
2019-03-31T05:09:46.285Z,191.10
2019-03-31T05:12:19.530Z,172.37
2019-03-31T05:14:51.807Z,189.70
2019-03-31T05:17:24.045Z,185.20
2019-03-31T05:19:56.426Z,177.93
2019-03-31T05:22:28.753Z,159.73
2019-03-31T05:25:01.026Z,158.47
2019-03-31T05:27:33.276Z,180.23
2019-03-31T05:30:06.361Z,150.87
2019-03-31T05:32:38.609Z,152.40
2019-03-31T05:35:10.963Z,131.90
2019-03-31T05:37:50.763Z,137.23
2019-03-31T05:40:17.401Z,135.70
2019-03-31T05:42:49.752Z,138.73
2019-03-31T05:45:22.103Z,127.27
2019-03-31T05:47:54.344Z,112.60
2019-03-31T05:50:26.694Z,126.60
2019-03-31T05:52:58.982Z,112.03
2019-03-31T05:55:31.230Z,122.83
2019-03-31T05:58:03.580Z,113.53
2019-03-31T06:00:42.649Z,107.60
2019-03-31T06:03:14.891Z,112.27
2019-03-31T06:05:47.369Z,115.03
2019-03-31T06:08:19.625Z,109.63
2019-03-31T06:10:51.896Z,110.20
2019-03-31T06:13:24.133Z,107.70
2019-03-31T06:15:56.391Z,109.07
2019-03-31T06:18:28.628Z,97.37
2019-03-31T06:21:00.907Z,98.33
2019-03-31T06:23:33.176Z,102.43
2019-03-31T06:26:05.451Z,104.93
2019-03-31T06:28:37.779Z,105.07
2019-03-31T06:31:10.037Z,110.93
2019-03-31T06:33:42.477Z,95.23
2019-03-31T06:36:14.732Z,97.17
2019-03-31T06:38:47.103Z,98.57
2019-03-31T06:41:19.459Z,94.13
2019-03-31T06:43:51.697Z,85.73
2019-03-31T06:46:23.976Z,89.43
2019-03-31T06:48:56.231Z,81.03
2019-03-31T06:51:28.507Z,70.83
2019-03-31T06:54:00.781Z,78.30
2019-03-31T06:56:33.031Z,76.93
2019-03-31T06:59:05.285Z,77.67
2019-03-31T07:01:37.542Z,72.00
2019-03-31T07:04:09.883Z,71.03
2019-03-31T07:06:42.140Z,55.60
2019-03-31T07:09:14.379Z,59.70
2019-03-31T07:11:46.729Z,56.73
2019-03-31T07:14:18.972Z,62.63
2019-03-31T07:16:51.232Z,60.63
2019-03-31T07:19:23.518Z,65.43
2019-03-31T07:21:55.765Z,59.37
2019-03-31T07:24:28.013Z,55.53
2019-03-31T07:27:00.263Z,54.33
2019-03-31T07:29:32.497Z,53.00
2019-03-31T07:32:04.766Z,52.67
2019-03-31T07:34:37.116Z,57.23
2019-03-31T07:37:09.455Z,54.33
2019-03-31T07:39:41.953Z,54.03
2019-03-31T07:42:15.922Z,54.10
2019-03-31T07:44:48.260Z,54.03
2019-03-31T07:47:20.582Z,50.10
2019-03-31T07:49:52.939Z,50.17
2019-03-31T07:52:25.306Z,54.23
2019-03-31T07:54:57.635Z,47.53
2019-03-31T07:57:29.895Z,56.80
2019-03-31T08:00:02.672Z,50.73
2019-03-31T08:02:39.524Z,46.30
2019-03-31T08:05:16.586Z,43.43
2019-03-31T08:07:48.940Z,51.07
2019-03-31T08:10:25.991Z,47.87
2019-03-31T08:13:02.043Z,49.40
2019-03-31T08:15:34.484Z,51.97
2019-03-31T08:18:06.898Z,48.67
2019-03-31T08:20:39.217Z,55.13
2019-03-31T08:23:11.567Z,49.20
2019-03-31T08:25:43.906Z,52.73
2019-03-31T08:28:16.200Z,47.53
2019-03-31T08:30:48.445Z,52.27
2019-03-31T08:33:20.793Z,42.90
2019-03-31T08:35:53.031Z,44.47
2019-03-31T08:38:25.395Z,47.43
2019-03-31T08:40:57.747Z,42.23
2019-03-31T08:43:30.085Z,35.13
2019-03-31T08:46:02.436Z,31.23
2019-03-31T08:48:34.683Z,35.07
2019-03-31T08:51:06.945Z,34.63
2019-03-31T08:53:39.219Z,31.43
2019-03-31T08:56:11.476Z,32.13
2019-03-31T08:58:43.749Z,40.60
2019-03-31T09:01:16.857Z,31.23
2019-03-31T09:03:49.217Z,23.87
2019-03-31T09:06:21.568Z,27.57
2019-03-31T09:08:53.930Z,23.67
2019-03-31T09:11:26.272Z,24.80
2019-03-31T09:13:58.537Z,19.20
2019-03-31T09:16:30.769Z,31.87
2019-03-31T09:19:03.286Z,23.03
2019-03-31T09:21:35.597Z,23.73
2019-03-31T09:24:07.895Z,23.07
2019-03-31T09:26:40.185Z,27.33
2019-03-31T09:29:12.585Z,25.73
2019-03-31T09:31:44.960Z,19.50
2019-03-31T09:34:17.331Z,30.97
2019-03-31T09:36:49.593Z,30.13
2019-03-31T09:39:22.051Z,25.50
2019-03-31T09:41:54.305Z,22.77
2019-03-31T09:44:30.076Z,25.37
2019-03-31T09:47:00.800Z,28.07
2019-03-31T09:49:33.205Z,23.87
2019-03-31T09:52:05.555Z,26.77
2019-03-31T09:54:37.933Z,26.23
2019-03-31T09:57:10.260Z,29.63
2019-03-31T09:59:42.544Z,16.87
2019-03-31T10:02:14.800Z,28.43
2019-03-31T10:04:47.057Z,23.17
2019-03-31T10:07:19.459Z,21.00
2019-03-31T10:09:51.809Z,24.13
2019-03-31T10:12:24.047Z,20.30
2019-03-31T10:14:56.333Z,22.30
2019-03-31T10:17:28.611Z,17.97
2019-03-31T10:20:00.874Z,19.13
2019-03-31T10:22:33.249Z,20.00
2019-03-31T10:25:06.231Z,12.73
2019-03-31T10:27:38.582Z,11.77
2019-03-31T10:30:11.517Z,15.10
2019-03-31T10:32:43.949Z,13.10
2019-03-31T10:35:16.227Z,15.20
2019-03-31T10:37:48.504Z,11.80
2019-03-31T10:40:20.876Z,11.97
2019-03-31T10:42:53.114Z,12.37
2019-03-31T10:45:25.463Z,13.03
2019-03-31T10:47:57.741Z,16.43
2019-03-31T10:50:30.007Z,14.90
2019-03-31T10:53:02.403Z,13.23
2019-03-31T10:55:35.053Z,16.23
2019-03-31T10:58:07.413Z,18.47
2019-03-31T11:00:39.659Z,18.73
2019-03-31T11:03:11.932Z,11.33
2019-03-31T11:05:44.196Z,17.00
2019-03-31T11:08:16.440Z,19.37
2019-03-31T11:10:48.708Z,16.13
2019-03-31T11:13:21.061Z,14.83
2019-03-31T11:15:53.395Z,15.17
2019-03-31T11:18:25.633Z,14.57
2019-03-31T11:21:00.651Z,18.57
2019-03-31T11:23:33.017Z,17.67
2019-03-31T11:26:05.298Z,17.90
2019-03-31T11:28:37.626Z,15.93
2019-03-31T11:31:09.992Z,16.63
2019-03-31T11:33:42.252Z,20.77
2019-03-31T11:36:14.635Z,20.97
2019-03-31T11:38:46.901Z,24.60
2019-03-31T11:41:19.160Z,27.00
2019-03-31T11:43:51.425Z,29.17
2019-03-31T11:46:23.674Z,31.93
2019-03-31T11:48:55.956Z,13.80
2019-03-31T11:51:28.208Z,16.50
2019-03-31T11:54:00.450Z,13.70
2019-03-31T11:56:32.726Z,11.17
2019-03-31T11:59:04.976Z,22.30
2019-03-31T12:01:37.253Z,16.33
2019-03-31T12:04:09.523Z,11.47
2019-03-31T12:06:41.782Z,13.07
2019-03-31T12:09:14.144Z,14.63
2019-03-31T12:11:46.423Z,13.07
2019-03-31T12:14:18.764Z,8.47
2019-03-31T12:16:51.032Z,10.03
2019-03-31T12:19:23.284Z,9.87
2019-03-31T12:21:55.560Z,13.60
2019-03-31T12:24:27.836Z,6.40
2019-03-31T12:27:00.127Z,11.53
2019-03-31T12:29:32.456Z,6.97
2019-03-31T12:32:04.737Z,9.83
2019-03-31T12:34:36.992Z,12.83
2019-03-31T12:37:09.266Z,8.23
2019-03-31T12:39:41.522Z,6.50
2019-03-31T12:42:13.789Z,8.03
2019-03-31T12:44:46.046Z,5.80
2019-03-31T12:47:18.320Z,8.50
2019-03-31T12:49:50.640Z,10.97
2019-03-31T12:52:22.947Z,8.27
2019-03-31T12:54:55.246Z,7.13
2019-03-31T12:57:27.522Z,5.80
2019-03-31T12:59:59.779Z,5.97
2019-03-31T13:02:32.142Z,8.50
2019-03-31T13:05:04.667Z,5.97
2019-03-31T13:07:36.926Z,11.03
2019-03-31T13:10:09.389Z,11.03
2019-03-31T13:12:41.651Z,7.03
2019-03-31T13:15:14.040Z,7.57
2019-03-31T13:17:46.436Z,7.87
2019-03-31T13:20:18.879Z,7.40
2019-03-31T13:22:51.136Z,9.37
2019-03-31T13:25:23.400Z,7.90
2019-03-31T13:27:55.705Z,9.27
2019-03-31T13:30:27.966Z,7.60
2019-03-31T13:33:00.241Z,6.97
2019-03-31T13:35:32.688Z,9.43
2019-03-31T13:38:11.276Z,9.57
2019-03-31T13:40:39.165Z,11.70
2019-03-31T13:43:11.439Z,8.13
2019-03-31T13:45:43.873Z,10.80
2019-03-31T13:48:16.137Z,15.83
2019-03-31T13:50:48.389Z,6.43
2019-03-31T13:53:20.635Z,7.37
2019-03-31T13:55:52.893Z,8.10
2019-03-31T13:58:25.485Z,8.17
2019-03-31T14:00:58.585Z,5.83
2019-03-31T14:03:30.905Z,5.10
2019-03-31T14:06:03.255Z,14.40
2019-03-31T14:08:35.531Z,18.50
2019-03-31T14:11:07.790Z,15.57
2019-03-31T14:13:40.166Z,6.83
2019-03-31T14:16:12.416Z,10.00
2019-03-31T14:18:44.689Z,7.23
2019-03-31T14:21:17.036Z,6.43
2019-03-31T14:23:49.302Z,10.07
2019-03-31T14:26:21.552Z,18.43
2019-03-31T14:28:53.881Z,11.37
2019-03-31T14:31:26.160Z,9.23
2019-03-31T14:33:58.445Z,4.50
2019-03-31T14:36:30.691Z,5.33
2019-03-31T14:39:06.621Z,11.53
2019-03-31T14:41:38.984Z,7.47
2019-03-31T14:44:11.282Z,6.37
2019-03-31T14:46:43.571Z,6.60
2019-03-31T14:49:15.939Z,4.80
2019-03-31T14:51:48.208Z,8.20
2019-03-31T14:54:20.549Z,8.83
2019-03-31T14:56:52.801Z,4.83
2019-03-31T14:59:25.049Z,5.73
2019-03-31T15:01:57.313Z,6.33
2019-03-31T15:04:29.618Z,7.77
2019-03-31T15:07:01.959Z,5.67
2019-03-31T15:09:34.211Z,12.70
2019-03-31T15:12:06.467Z,7.97
2019-03-31T15:14:38.717Z,7.47
2019-03-31T15:17:10.975Z,10.40
2019-03-31T15:19:43.347Z,75.43
2019-03-31T15:22:15.608Z,10.63
2019-03-31T15:24:47.868Z,7.93
2019-03-31T15:27:20.119Z,6.17
2019-03-31T15:29:52.376Z,13.77
2019-03-31T15:32:24.632Z,3.63
2019-03-31T15:34:56.898Z,8.63
2019-03-31T15:37:29.154Z,12.40
2019-03-31T15:40:01.425Z,5.90
2019-03-31T15:42:33.797Z,5.17
2019-03-31T15:45:06.383Z,8.33
2019-03-31T15:47:38.653Z,6.23
2019-03-31T15:50:11.389Z,12.37
2019-03-31T15:52:43.649Z,9.93
2019-03-31T15:55:16.035Z,5.97
2019-03-31T15:57:48.392Z,6.40
2019-03-31T16:00:20.858Z,6.07
2019-03-31T16:02:53.097Z,6.77
2019-03-31T16:05:25.354Z,4.60
2019-03-31T16:07:57.080Z,4.87
2019-03-31T16:10:28.900Z,7.50
2019-03-31T16:13:00.615Z,8.83
2019-03-31T16:15:32.384Z,11.40
2019-03-31T16:18:04.296Z,7.60
2019-03-31T16:20:36.027Z,5.97
2019-03-31T16:23:07.733Z,4.33
2019-03-31T16:25:43.288Z,7.77
2019-03-31T16:28:15.004Z,3.83
2019-03-31T16:30:46.729Z,7.43
2019-03-31T16:33:18.469Z,5.33
2019-03-31T16:35:50.219Z,7.63
2019-03-31T16:38:25.258Z,10.60
2019-03-31T16:40:55.777Z,10.40
2019-03-31T16:43:27.526Z,9.33
2019-03-31T16:45:59.261Z,10.53
2019-03-31T16:48:31.070Z,3.90
2019-03-31T16:51:02.908Z,9.67
2019-03-31T16:53:34.636Z,10.40
2019-03-31T16:56:06.473Z,18.33
2019-03-31T16:58:38.598Z,21.80
2019-03-31T17:01:10.433Z,29.43
2019-03-31T17:03:42.172Z,21.93
2019-03-31T17:06:14.004Z,16.90
2019-03-31T17:08:45.726Z,12.37
2019-03-31T17:11:17.471Z,7.43
2019-03-31T17:13:49.284Z,6.00
2019-03-31T17:16:21.026Z,5.17
2019-03-31T17:18:52.875Z,4.20
2019-03-31T17:21:24.752Z,4.67
2019-03-31T17:23:56.610Z,17.17
2019-03-31T17:26:28.451Z,21.23
2019-03-31T17:29:00.286Z,20.33
2019-03-31T17:31:32.879Z,9.93
2019-03-31T17:34:04.841Z,29.57
2019-03-31T17:36:36.584Z,14.23
2019-03-31T17:39:08.722Z,9.40
2019-03-31T17:41:40.616Z,7.90
2019-03-31T17:44:12.479Z,19.87
2019-03-31T17:46:44.324Z,14.33
2019-03-31T17:49:16.177Z,19.93
2019-03-31T17:51:47.974Z,18.60
2019-03-31T17:54:19.688Z,15.80
2019-03-31T17:56:51.638Z,21.20
2019-03-31T17:59:23.453Z,18.03
2019-03-31T18:01:55.195Z,14.53
2019-03-31T18:04:27.058Z,32.13
2019-03-31T18:06:58.922Z,41.03
2019-03-31T18:09:30.638Z,29.80
2019-03-31T18:12:02.580Z,29.60
2019-03-31T18:14:34.392Z,21.90
2019-03-31T18:17:06.154Z,19.90
2019-03-31T18:19:37.989Z,22.10
2019-03-31T18:22:16.451Z,33.97
2019-03-31T18:24:43.595Z,17.87
2019-03-31T18:27:15.546Z,16.93
2019-03-31T18:29:47.545Z,12.53
2019-03-31T18:32:19.511Z,10.40
2019-03-31T18:34:51.661Z,12.27
2019-03-31T18:37:23.890Z,12.43
2019-03-31T18:39:55.892Z,10.90
2019-03-31T18:42:28.375Z,11.20
2019-03-31T18:45:01.928Z,8.23
2019-03-31T18:47:34.147Z,7.67
2019-03-31T18:50:07.490Z,11.30
2019-03-31T18:52:39.686Z,11.27
2019-03-31T18:55:38.571Z,16.60
2019-03-31T18:58:28.801Z,12.47
2019-03-31T19:01:11.523Z,7.73
2019-03-31T19:04:06.343Z,13.33
2019-03-31T19:07:01.205Z,9.53
2019-03-31T19:09:44.873Z,9.33
2019-03-31T19:12:45.655Z,8.30
2019-03-31T19:15:45.240Z,8.40
2019-03-31T19:18:43.568Z,13.43
2019-03-31T19:21:31.172Z,7.50
2019-03-31T19:24:32.051Z,9.10
2019-03-31T19:27:18.722Z,7.07
2019-03-31T19:30:02.527Z,11.43
2019-03-31T19:33:09.957Z,10.47
2019-03-31T19:36:02.185Z,14.53
2019-03-31T19:38:54.218Z,4.30
2019-03-31T19:41:57.164Z,15.03
2019-03-31T19:44:58.331Z,10.17
2019-03-31T19:47:41.919Z,5.10
2019-03-31T19:50:47.897Z,15.43
2019-03-31T19:53:53.300Z,12.97
2019-03-31T19:56:41.820Z,11.40
2019-03-31T19:59:45.247Z,22.40
2019-03-31T20:02:29.547Z,10.73
2019-03-31T20:05:20.769Z,9.70
2019-03-31T20:08:12.078Z,14.00
2019-03-31T20:11:06.825Z,7.90
2019-03-31T20:14:01.696Z,7.07
2019-03-31T20:16:52.546Z,7.80
2019-03-31T20:19:50.705Z,9.97
2019-03-31T20:22:41.998Z,9.47
2019-03-31T20:25:43.573Z,10.80
2019-03-31T20:28:27.276Z,11.30
2019-03-31T20:31:17.035Z,8.77
2019-03-31T20:34:08.940Z,7.80
2019-03-31T20:37:18.610Z,12.53
2019-03-31T20:40:18.668Z,7.73
2019-03-31T20:43:02.853Z,12.90
2019-03-31T20:45:34.561Z,7.07
2019-03-31T20:48:06.293Z,7.43
2019-03-31T20:50:38.017Z,8.70
2019-03-31T20:53:09.738Z,8.80
2019-03-31T20:55:41.458Z,5.70
2019-03-31T20:58:13.217Z,5.43
2019-03-31T21:00:45.033Z,9.77
2019-03-31T21:03:16.747Z,12.30
2019-03-31T21:05:48.483Z,11.27
2019-03-31T21:08:20.431Z,6.07
2019-03-31T21:10:52.132Z,7.93
2019-03-31T21:13:23.858Z,9.10
2019-03-31T21:15:55.589Z,5.10
2019-03-31T21:18:27.323Z,6.83
2019-03-31T21:20:59.053Z,4.93
2019-03-31T21:23:30.856Z,9.33
2019-03-31T21:26:02.964Z,8.27
2019-03-31T21:28:34.672Z,12.33
2019-03-31T21:31:06.368Z,7.90
2019-03-31T21:33:38.080Z,9.93
2019-03-31T21:36:09.793Z,4.23
2019-03-31T21:38:41.598Z,4.77
2019-03-31T21:41:14.263Z,7.03
2019-03-31T21:43:46.391Z,8.70
2019-03-31T21:46:18.102Z,8.23
2019-03-31T21:48:49.812Z,10.33
2019-03-31T21:51:21.493Z,8.13
2019-03-31T21:53:53.310Z,9.97
2019-03-31T21:56:25.083Z,6.40
2019-03-31T21:58:56.803Z,8.53
2019-03-31T22:01:30.007Z,10.93
2019-03-31T22:04:01.860Z,8.80
2019-03-31T22:06:33.563Z,8.60
2019-03-31T22:09:07.592Z,10.33
2019-03-31T22:11:39.286Z,9.90
2019-03-31T22:14:11.169Z,11.67
2019-03-31T22:16:42.882Z,6.43
2019-03-31T22:19:14.590Z,6.70
2019-03-31T22:21:46.329Z,10.10
2019-03-31T22:24:18.056Z,4.80
2019-03-31T22:26:49.764Z,12.30
2019-03-31T22:29:21.476Z,10.33
2019-03-31T22:31:53.196Z,14.17
2019-03-31T22:34:24.904Z,9.17
2019-03-31T22:36:56.613Z,13.70
2019-03-31T22:39:28.329Z,12.53
2019-03-31T22:42:03.131Z,12.10
2019-03-31T22:44:37.654Z,16.40
2019-03-31T22:47:11.551Z,9.63
2019-03-31T22:49:43.304Z,12.47
2019-03-31T22:52:15.080Z,12.87
2019-03-31T22:54:46.804Z,12.37
2019-03-31T22:57:18.525Z,9.00
2019-03-31T22:59:50.351Z,10.37
2019-03-31T23:02:22.051Z,9.87
2019-03-31T23:04:53.807Z,8.03
2019-03-31T23:07:25.535Z,7.37
2019-03-31T23:09:57.365Z,17.17
2019-03-31T23:12:29.069Z,13.17
2019-03-31T23:15:01.086Z,4.83
2019-03-31T23:17:32.776Z,11.70
2019-03-31T23:20:04.618Z,9.30
2019-03-31T23:22:57.374Z,11.33
2019-03-31T23:25:29.200Z,8.13
2019-03-31T23:28:00.900Z,8.20
2019-03-31T23:30:32.740Z,7.83
2019-03-31T23:33:04.439Z,4.90
2019-03-31T23:35:36.150Z,5.80
2019-03-31T23:38:07.839Z,10.53
2019-03-31T23:40:39.656Z,7.23
2019-03-31T23:43:11.411Z,10.67
2019-03-31T23:45:43.153Z,11.53
2019-03-31T23:48:14.952Z,17.13
2019-03-31T23:50:46.676Z,4.50
2019-03-31T23:53:18.388Z,9.97
2019-03-31T23:55:50.147Z,9.10
2019-03-31T23:58:21.880Z,9.57
